PDT,Max TemperatureF,Mean TemperatureF,Min TemperatureF,Max Dew PointF,MeanDew PointF,Min DewpointF,Max Humidity, Mean Humidity, Min Humidity, Max Sea Level PressureIn, Mean Sea Level PressureIn, Min Sea Level PressureIn, Max VisibilityMiles, Mean VisibilityMiles, Min VisibilityMiles, Max Wind SpeedMPH, Mean Wind SpeedMPH, Max Gust SpeedMPH,PrecipitationIn, CloudCover, Events, WindDirDegrees
2013-3-1,51,45,39,44,42,38,100,87,74,30.38,30.32,30.28,10,8,0,28,14,32,0.01,7,Rain,189
2013-3-2,53,47,41,40,39,36,89,74,59,30.28,30.09,29.89,10,10,10,23,12,30,T,8,,176
2013-3-3,44,37,30,30,20,16,76,55,33,30.19,30.03,29.89,10,10,10,26,16,33,0.00,5,,265
2013-3-4,42,34,26,24,19,15,78,58,38,30.30,30.22,30.09,10,10,10,13,5,16,0.00,2,,88
2013-3-5,40,35,29,30,22,18,82,63,44,30.09,29.96,29.83,10,10,5,15,10,18,T,7,Snow,42
2013-3-6,46,40,33,37,32,26,92,79,65,29.84,29.69,29.56,10,9,1,22,11,26,0.17,8,Rain-Snow-Thunderstorm,89
2013-3-7,45,38,30,34,32,28,100,77,53,30.09,30.00,29.84,10,6,0,18,9,23,0.18,6,Fog-Snow,188
2013-3-8,41,35,29,34,31,27,100,88,76,30.16,30.08,30.01,10,4,0,9,4,13,0.00,5,Fog,41
2013-3-9,50,38,26,32,28,24,92,64,36,30.42,30.32,30.17,10,10,10,14,4,18,0.00,3,Fog,223
2013-3-10,44,37,30,36,31,27,96,76,55,30.41,30.33,30.24,10,10,7,17,8,21,0.01,6,Rain,179
2013-3-11,49,40,30,33,27,18,100,65,29,30.36,30.28,30.24,10,7,0,15,5,25,0.00,6,Fog,188
2013-3-12,55,47,38,43,37,25,92,73,54,30.21,30.11,30.04,10,10,10,28,13,33,0.02,8,Rain,179
2013-3-13,55,50,44,42,39,37,76,66,55,30.18,30.14,30.06,10,10,10,20,9,26,T,8,,186
2013-3-14,61,53,44,42,39,33,83,65,46,30.12,30.04,29.97,10,10,10,23,10,26,0.00,8,,171
2013-3-15,57,48,39,40,36,31,92,68,43,30.15,30.09,30.01,10,10,10,20,11,23,0.00,6,,211
2013-3-16,51,43,34,37,34,27,85,69,52,30.03,29.87,29.69,10,10,10,31,17,41,T,8,Rain,209
2013-3-17,46,38,30,25,21,15,78,55,31,30.02,29.91,29.71,10,10,7,31,19,40,T,4,Snow,244
2013-3-18,46,35,24,32,23,15,84,58,31,30.19,30.04,29.94,10,9,1,39,13,45,T,4,Snow,230
2013-3-19,49,36,23,26,21,15,92,59,26,30.31,30.14,29.83,10,9,0,14,7,20,0.02,5,Fog-Rain,96
2013-3-20,52,43,33,45,38,27,93,77,60,29.80,29.61,29.48,10,9,2,37,18,46,0.40,7,Rain,192
2013-3-21,44,35,26,29,22,17,78,57,36,30.03,29.96,29.81,10,10,4,31,17,39,T,5,Snow,239
2013-3-22,41,33,24,25,21,16,92,65,37,30.26,30.13,30.02,10,9,1,20,6,22,T,5,Fog-Snow,197
2013-3-23,41,32,22,24,22,16,88,63,37,30.36,30.32,30.24,10,10,10,17,5,20,T,3,,155
2013-3-24,45,35,25,23,19,12,88,58,27,30.38,30.30,30.20,10,10,10,12,4,14,0.00,2,,75
2013-3-25,50,39,27,26,21,16,69,52,34,30.20,30.11,29.97,10,10,10,10,5,13,0.00,3,,64
2013-3-26,56,43,29,30,26,21,72,54,35,30.03,29.99,29.95,10,10,10,9,3,15,0.00,2,,29
2013-3-27,56,47,37,39,34,29,82,67,51,30.01,29.98,29.95,10,10,10,10,4,13,0.00,6,,96
2013-3-28,58,48,37,41,38,36,92,70,47,30.09,30.05,30.00,10,10,10,13,4,15,0.01,7,Rain,187
2013-3-29,61,51,40,39,34,29,86,58,29,30.21,30.16,30.10,10,10,10,18,7,24,0.00,4,,203
2013-3-30,64,50,36,41,34,29,82,55,27,30.30,30.22,30.12,10,10,10,9,4,14,0.00,3,,173
2013-3-31,68,53,38,37,33,26,85,56,26,30.11,30.03,29.93,10,10,10,9,3,12,0.00,1,,44